createdAt,value
2022-11-01T00:00:19.575Z,7.25
2022-11-01T00:03:23.417Z,6.23
2022-11-01T00:06:26.894Z,6.60
2022-11-01T00:09:31.423Z,10.77
2022-11-01T00:12:34.384Z,6.78
2022-11-01T00:15:37.493Z,7.43
2022-11-01T00:18:40.507Z,7.25
2022-11-01T00:21:43.747Z,7.35
2022-11-01T00:24:47.982Z,7.23
2022-11-01T00:27:50.905Z,7.53
2022-11-01T00:30:54.520Z,11.05
2022-11-01T00:33:57.514Z,6.60
2022-11-01T00:37:00.615Z,6.67
2022-11-01T00:40:05.547Z,8.80
2022-11-01T00:43:08.574Z,6.30
2022-11-01T00:46:11.768Z,7.22
2022-11-01T00:49:14.699Z,7.85
2022-11-01T00:52:18.406Z,8.48
2022-11-01T00:55:22.804Z,8.10
2022-11-01T00:58:25.811Z,7.03
2022-11-01T01:01:28.888Z,9.60
2022-11-01T01:04:32.004Z,7.90
2022-11-01T01:07:35.225Z,8.35
2022-11-01T01:10:39.686Z,7.53
2022-11-01T01:13:42.793Z,10.52
2022-11-01T01:16:45.725Z,12.38
2022-11-01T01:19:48.690Z,13.38
2022-11-01T01:22:51.795Z,11.07
2022-11-01T01:25:56.087Z,9.88
2022-11-01T01:29:00.517Z,10.75
2022-11-01T01:32:03.551Z,9.32
2022-11-01T01:35:08.261Z,10.68
2022-11-01T01:38:11.525Z,13.43
2022-11-01T01:41:33.447Z,14.07
2022-11-01T01:45:22.650Z,13.55
2022-11-01T01:48:28.523Z,12.32
2022-11-01T01:51:31.608Z,13.93
2022-11-01T01:54:34.597Z,15.10
2022-11-01T01:57:41.552Z,17.05
2022-11-01T02:00:45.934Z,16.80
2022-11-01T02:03:50.085Z,15.95
2022-11-01T02:06:53.265Z,16.02
2022-11-01T02:09:57.976Z,15.00
2022-11-01T02:13:02.571Z,18.83
2022-11-01T02:16:44.853Z,18.20
2022-11-01T02:20:19.263Z,15.90
2022-11-01T02:24:20.470Z,15.93
2022-11-01T02:27:33.822Z,20.15
2022-11-01T02:30:47.659Z,16.92
2022-11-01T02:33:59.839Z,17.33
2022-11-01T02:37:20.708Z,15.32
2022-11-01T02:40:34.207Z,22.08
2022-11-01T02:43:46.550Z,18.57
2022-11-01T02:47:02.156Z,18.40
2022-11-01T02:50:11.721Z,17.60
2022-11-01T02:53:14.908Z,16.70
2022-11-01T02:56:19.946Z,21.10
2022-11-01T02:59:27.296Z,17.20
2022-11-01T03:02:40.942Z,18.13
2022-11-01T03:06:02.723Z,20.17
2022-11-01T03:09:11.663Z,21.83
2022-11-01T03:12:25.602Z,18.50
2022-11-01T03:15:39.938Z,18.90
2022-11-01T03:22:07.679Z,20.67
2022-11-01T03:25:35.614Z,19.85
2022-11-01T03:28:43.727Z,17.45
2022-11-01T03:31:49.451Z,19.23
2022-11-01T03:34:52.647Z,24.13
2022-11-01T03:38:02.112Z,14.82
2022-11-01T03:41:10.084Z,16.02
2022-11-01T03:44:15.158Z,17.48
2022-11-01T03:47:18.259Z,16.10
2022-11-01T03:50:24.115Z,17.20
2022-11-01T03:53:28.514Z,21.30
2022-11-01T03:56:31.655Z,17.02
2022-11-01T03:59:34.724Z,15.32
2022-11-01T04:02:37.601Z,19.88
2022-11-01T04:05:42.646Z,16.95
2022-11-01T04:08:46.965Z,21.90
2022-11-01T04:11:50.135Z,15.35
2022-11-01T04:15:10.923Z,17.85
2022-11-01T04:18:35.429Z,18.33
2022-11-01T04:21:39.234Z,21.55
2022-11-01T04:24:43.523Z,21.75
2022-11-01T04:27:46.431Z,16.27
2022-11-01T04:30:49.475Z,20.15
2022-11-01T04:33:52.611Z,21.02
2022-11-01T04:36:56.554Z,18.00
2022-11-01T04:40:00.893Z,16.35
2022-11-01T04:43:03.957Z,18.38
2022-11-01T04:46:07.336Z,19.02
2022-11-01T04:49:10.439Z,19.17
2022-11-01T04:52:13.491Z,20.33
2022-11-01T04:55:18.046Z,20.33
2022-11-01T04:58:21.069Z,17.63
2022-11-01T05:01:24.107Z,15.57
2022-11-01T05:04:27.329Z,18.60
2022-11-01T05:07:30.299Z,14.77
2022-11-01T05:10:36.493Z,14.32
2022-11-01T05:13:39.696Z,17.17
2022-11-01T05:16:42.669Z,14.90
2022-11-01T05:19:45.621Z,16.35
2022-11-01T05:22:48.971Z,16.48
2022-11-01T05:25:53.813Z,19.83
2022-11-01T05:28:56.769Z,13.23
2022-11-01T05:31:59.710Z,14.32
2022-11-01T05:35:04.556Z,14.57
2022-11-01T05:38:07.697Z,14.68
2022-11-01T05:44:19.929Z,16.38
2022-11-01T05:47:22.886Z,13.88
2022-11-01T05:50:25.827Z,16.80
2022-11-01T05:53:28.905Z,15.68
2022-11-01T05:56:33.406Z,18.40
2022-11-01T05:59:36.542Z,13.05
2022-11-01T06:02:39.812Z,12.75
2022-11-01T06:05:43.107Z,15.87
2022-11-01T06:08:46.112Z,12.97
2022-11-01T06:11:50.717Z,14.50
2022-11-01T06:14:53.862Z,13.98
2022-11-01T06:17:58.219Z,17.70
2022-11-01T06:21:01.262Z,12.90
2022-11-01T06:24:04.511Z,15.88
2022-11-01T06:27:12.503Z,17.07
2022-11-01T06:30:16.223Z,14.55
2022-11-01T06:33:19.311Z,16.80
2022-11-01T06:36:22.717Z,19.30
2022-11-01T06:39:25.741Z,15.73
2022-11-01T06:42:30.529Z,13.70
2022-11-01T06:45:34.297Z,15.38
2022-11-01T06:48:37.264Z,17.25
2022-11-01T06:51:40.328Z,12.93
2022-11-01T06:54:43.328Z,15.05
2022-11-01T06:57:57.287Z,15.98
2022-11-01T07:01:02.915Z,22.30
2022-11-01T07:04:06.354Z,16.80
2022-11-01T07:07:09.449Z,21.53
2022-11-01T07:10:12.466Z,20.38
2022-11-01T07:13:16.767Z,23.48
2022-11-01T07:16:19.764Z,18.60
2022-11-01T07:19:23.611Z,16.10
2022-11-01T07:22:26.525Z,22.15
2022-11-01T07:25:30.865Z,24.70
2022-11-01T07:28:35.333Z,24.10
2022-11-01T07:31:38.880Z,20.45
2022-11-01T07:34:41.844Z,20.25
2022-11-01T07:37:44.840Z,20.48
2022-11-01T07:40:49.711Z,19.48
2022-11-01T07:43:54.512Z,21.30
2022-11-01T07:46:57.507Z,21.08
2022-11-01T07:50:00.574Z,20.23
2022-11-01T07:53:05.994Z,20.42
2022-11-01T07:56:09.162Z,22.23
2022-11-01T07:59:13.581Z,19.27
2022-11-01T08:02:16.687Z,19.27
2022-11-01T08:05:19.830Z,21.37
2022-11-01T08:08:23.064Z,24.05
2022-11-01T08:11:26.008Z,20.20
2022-11-01T08:14:30.338Z,19.30
2022-11-01T08:17:34.886Z,17.40
2022-11-01T08:20:38.081Z,19.95
2022-11-01T08:23:42.675Z,18.40
2022-11-01T08:26:45.834Z,18.52
2022-11-01T08:29:50.124Z,17.98
2022-11-01T08:33:00.492Z,20.35
2022-11-01T08:36:03.930Z,19.05
2022-11-01T08:39:07.008Z,19.30
2022-11-01T08:42:10.795Z,17.15
2022-11-01T08:45:15.582Z,18.80
2022-11-01T08:48:18.643Z,17.48
2022-11-01T08:51:25.693Z,18.45
2022-11-01T08:54:28.671Z,21.67
2022-11-01T08:57:32.049Z,19.25
2022-11-01T09:00:36.758Z,20.83
2022-11-01T09:03:39.610Z,19.58
2022-11-01T09:06:42.643Z,18.65
2022-11-01T09:09:46.493Z,18.05
2022-11-01T09:12:49.535Z,23.83
2022-11-01T09:15:57.254Z,16.95
2022-11-01T09:19:04.457Z,16.50
2022-11-01T09:22:08.657Z,24.58
2022-11-01T09:25:12.525Z,18.25
2022-11-01T09:28:15.750Z,19.25
2022-11-01T09:31:21.309Z,20.73
2022-11-01T09:34:24.640Z,23.80
2022-11-01T09:37:27.614Z,20.65
2022-11-01T09:40:39.073Z,19.73
2022-11-01T09:43:45.037Z,20.17
2022-11-01T09:46:56.731Z,19.02
2022-11-01T09:50:13.564Z,19.98
2022-11-01T09:53:23.121Z,20.60
2022-11-01T09:56:36.195Z,22.77
2022-11-01T09:59:51.784Z,21.33
2022-11-01T10:03:20.789Z,20.10
2022-11-01T10:06:28.816Z,21.70
2022-11-01T10:09:44.987Z,21.15
2022-11-01T10:13:08.281Z,21.58
2022-11-01T10:16:24.153Z,24.15
2022-11-01T10:19:35.245Z,20.15
2022-11-01T10:22:40.461Z,21.33
2022-11-01T10:25:52.903Z,22.42
2022-11-01T10:29:08.792Z,20.77
2022-11-01T10:32:26.375Z,17.65
2022-11-01T10:35:36.294Z,21.70
2022-11-01T10:42:11.041Z,20.33
2022-11-01T10:45:19.357Z,21.67
2022-11-01T10:48:31.546Z,33.08
2022-11-01T10:51:36.869Z,24.67
2022-11-01T10:54:44.823Z,26.45
2022-11-01T10:57:56.290Z,30.63
2022-11-01T11:00:59.912Z,29.00
2022-11-01T11:04:07.680Z,29.45
2022-11-01T11:07:18.602Z,38.22
2022-11-01T11:10:27.734Z,31.20
2022-11-01T11:13:32.586Z,34.65
2022-11-01T11:16:44.519Z,47.28
2022-11-01T11:19:48.964Z,39.53
2022-11-01T11:22:53.580Z,41.15
2022-11-01T11:26:04.228Z,39.20
2022-11-01T11:29:07.438Z,54.28
2022-11-01T11:32:19.073Z,47.20
2022-11-01T11:35:24.447Z,55.72
2022-11-01T11:38:47.652Z,54.28
2022-11-01T11:41:50.780Z,56.80
2022-11-01T11:44:57.169Z,53.03
2022-11-01T11:48:22.849Z,56.67
2022-11-01T11:51:29.648Z,49.05
2022-11-01T11:54:38.116Z,50.45
2022-11-01T11:57:41.201Z,54.80
2022-11-01T12:00:49.982Z,55.40
2022-11-01T12:03:58.483Z,45.17
2022-11-01T12:07:01.891Z,42.67
2022-11-01T12:10:29.815Z,44.43
2022-11-01T12:13:37.461Z,44.40
2022-11-01T12:16:42.647Z,41.45
2022-11-01T12:19:45.645Z,52.55
2022-11-01T12:23:07.438Z,39.90
2022-11-01T12:26:17.453Z,43.00
2022-11-01T12:29:33.426Z,47.05
2022-11-01T12:32:48.457Z,40.35
2022-11-01T12:35:55.286Z,42.05
2022-11-01T12:39:08.112Z,40.58
2022-11-01T12:42:20.851Z,40.08
2022-11-01T12:45:30.859Z,42.97
2022-11-01T12:48:41.243Z,42.75
2022-11-01T12:51:51.635Z,46.72
2022-11-01T12:55:05.093Z,34.72
2022-11-01T12:58:16.276Z,41.30
2022-11-01T13:01:37.998Z,47.65
2022-11-01T13:04:54.122Z,43.13
2022-11-01T13:08:13.810Z,39.58
2022-11-01T13:11:27.305Z,39.30
2022-11-01T13:14:49.602Z,38.57
2022-11-01T13:18:02.763Z,36.35
2022-11-01T13:21:15.678Z,47.30
2022-11-01T13:24:30.956Z,46.90
2022-11-01T13:27:41.745Z,42.15
2022-11-01T13:30:57.329Z,41.88
2022-11-01T13:34:24.782Z,37.58
2022-11-01T13:37:37.611Z,39.72
2022-11-01T13:40:54.906Z,36.80
2022-11-01T13:44:03.670Z,34.15
2022-11-01T13:47:43.452Z,38.00
2022-11-01T13:51:12.014Z,34.47
2022-11-01T13:54:26.296Z,35.03
2022-11-01T13:57:30.368Z,36.60
2022-11-01T14:03:49.706Z,32.67
2022-11-01T14:07:15.133Z,22.70
2022-11-01T14:10:47.869Z,19.15
2022-11-01T14:13:50.939Z,18.02
2022-11-01T14:16:54.804Z,16.40
2022-11-01T14:20:41.672Z,16.38
2022-11-01T14:23:52.241Z,12.88
2022-11-01T14:27:24.254Z,11.13
2022-11-01T14:30:34.919Z,12.18
2022-11-01T14:33:39.167Z,9.13
2022-11-01T14:36:46.328Z,11.73
2022-11-01T14:40:04.642Z,9.85
2022-11-01T14:43:20.462Z,9.80
2022-11-01T14:46:27.632Z,10.50
2022-11-01T14:49:40.389Z,7.28
2022-11-01T14:52:51.060Z,7.38
2022-11-01T14:56:08.405Z,7.03
2022-11-01T14:59:20.307Z,8.60
2022-11-01T15:02:25.482Z,5.88
2022-11-01T15:05:29.064Z,5.65
2022-11-01T15:08:42.544Z,7.97
2022-11-01T15:11:46.804Z,4.27
2022-11-01T15:14:51.701Z,5.63
2022-11-01T15:17:58.645Z,6.18
2022-11-01T15:21:02.965Z,7.22
2022-11-01T15:24:18.442Z,6.78
2022-11-01T15:27:24.383Z,4.75
2022-11-01T15:30:32.052Z,6.40
2022-11-01T15:33:35.519Z,6.07
2022-11-01T15:36:40.283Z,9.32
2022-11-01T15:39:44.761Z,7.38
2022-11-01T15:42:58.149Z,6.13
2022-11-01T15:46:03.494Z,7.03
2022-11-01T15:49:10.997Z,8.57
2022-11-01T15:52:21.109Z,5.88
2022-11-01T15:55:30.738Z,11.23
2022-11-01T15:58:39.325Z,9.63
2022-11-01T16:01:42.608Z,9.88
2022-11-01T16:04:47.906Z,19.00
2022-11-01T16:07:51.646Z,6.38
2022-11-01T16:10:56.714Z,8.88
2022-11-01T16:14:03.270Z,11.13
2022-11-01T16:17:09.747Z,11.60
2022-11-01T16:20:31.458Z,6.63
2022-11-01T16:23:35.657Z,6.95
2022-11-01T16:30:08.290Z,7.80
2022-11-01T16:33:24.166Z,10.35
2022-11-01T16:36:41.398Z,9.25
2022-11-01T16:39:45.030Z,10.48
2022-11-01T16:42:51.133Z,8.95
2022-11-01T16:45:54.565Z,7.25
2022-11-01T16:48:59.923Z,5.88
2022-11-01T16:52:02.916Z,12.07
2022-11-01T16:55:06.744Z,15.85
2022-11-01T16:58:18.613Z,9.95
2022-11-01T17:01:25.595Z,6.80
2022-11-01T17:04:29.596Z,10.13
2022-11-01T17:07:32.955Z,10.07
2022-11-01T17:10:36.031Z,11.17
2022-11-01T17:13:40.731Z,15.75
2022-11-01T17:16:47.248Z,9.90
2022-11-01T17:20:00.843Z,15.73
2022-11-01T17:23:04.137Z,14.50
2022-11-01T17:26:11.381Z,8.57
2022-11-01T17:29:15.832Z,10.35
2022-11-01T17:32:18.961Z,11.48
2022-11-01T17:35:24.372Z,10.00
2022-11-01T17:38:32.119Z,11.63
2022-11-01T17:41:35.160Z,12.80
2022-11-01T17:44:39.448Z,9.25
2022-11-01T17:47:42.450Z,12.95
2022-11-01T17:50:46.624Z,10.60
2022-11-01T17:56:57.079Z,11.55
2022-11-01T18:00:01.519Z,11.32
2022-11-01T18:03:04.961Z,10.48
2022-11-01T18:06:08.619Z,11.95
2022-11-01T18:09:22.710Z,16.15
2022-11-01T18:12:38.567Z,9.98
2022-11-01T18:15:48.547Z,12.13
2022-11-01T18:19:13.847Z,9.18
2022-11-01T18:22:32.514Z,14.32
2022-11-01T18:25:41.296Z,10.68
2022-11-01T18:28:45.058Z,7.78
2022-11-01T18:32:02.902Z,14.50
2022-11-01T18:35:16.309Z,11.90
2022-11-01T18:38:31.290Z,15.25
2022-11-01T18:41:34.402Z,10.48
2022-11-01T18:44:38.950Z,15.93
2022-11-01T18:47:53.173Z,13.57
2022-11-01T18:51:05.130Z,10.80
2022-11-01T18:54:26.985Z,13.40
2022-11-01T18:57:31.190Z,13.35
2022-11-01T19:03:39.020Z,15.23
2022-11-01T19:06:42.245Z,15.20
2022-11-01T19:09:54.237Z,11.00
2022-11-01T19:12:57.464Z,12.95
2022-11-01T19:16:02.950Z,8.83
2022-11-01T19:19:16.126Z,13.50
2022-11-01T19:22:39.747Z,9.80
2022-11-01T19:25:45.235Z,9.45
2022-11-01T19:28:51.832Z,12.60
2022-11-01T19:31:58.851Z,13.30
2022-11-01T19:35:03.394Z,7.32
2022-11-01T19:38:06.938Z,6.50
2022-11-01T19:41:15.956Z,12.57
2022-11-01T19:44:22.764Z,14.32
2022-11-01T19:47:40.458Z,10.73
2022-11-01T19:50:47.880Z,11.35
2022-11-01T19:53:52.424Z,17.33
2022-11-01T19:57:00.654Z,10.45
2022-11-01T20:00:29.092Z,14.07
2022-11-01T20:03:40.640Z,10.18
2022-11-01T20:06:50.574Z,12.57
2022-11-01T20:09:58.412Z,13.18
2022-11-01T20:13:02.492Z,14.40
2022-11-01T20:16:06.241Z,15.65
2022-11-01T20:19:13.136Z,11.10
2022-11-01T20:22:20.904Z,16.80
2022-11-01T20:25:24.783Z,16.27
2022-11-01T20:28:28.368Z,9.32
2022-11-01T20:31:32.328Z,11.52
2022-11-01T20:34:36.223Z,9.02
2022-11-01T20:37:41.091Z,13.63
2022-11-01T20:40:44.209Z,11.65
2022-11-01T20:43:47.297Z,10.65
2022-11-01T20:46:50.337Z,10.10
2022-11-01T20:49:53.739Z,17.75
2022-11-01T20:52:58.268Z,11.68
2022-11-01T20:56:01.596Z,10.32
2022-11-01T20:59:04.671Z,13.80
2022-11-01T21:02:11.039Z,13.27
2022-11-01T21:05:23.452Z,8.70
2022-11-01T21:08:33.524Z,12.43
2022-11-01T21:11:44.561Z,14.88
2022-11-01T21:14:47.846Z,12.57
2022-11-01T21:17:53.512Z,15.80
2022-11-01T21:20:58.888Z,10.85
2022-11-01T21:24:27.697Z,12.52
2022-11-01T21:27:31.260Z,8.43
2022-11-01T21:30:34.465Z,9.05
2022-11-01T21:33:39.718Z,8.68
2022-11-01T21:36:47.402Z,6.38
2022-11-01T21:40:03.187Z,8.40
2022-11-01T21:43:29.497Z,9.45
2022-11-01T21:46:38.435Z,10.90
2022-11-01T21:49:41.704Z,10.48
2022-11-01T21:52:44.715Z,10.77
2022-11-01T21:55:49.210Z,7.93
2022-11-01T21:58:52.173Z,10.95
2022-11-01T22:01:56.739Z,8.10
2022-11-01T22:04:59.943Z,15.18
2022-11-01T22:08:02.906Z,9.23
2022-11-01T22:11:08.068Z,12.98
2022-11-01T22:14:12.316Z,6.65
2022-11-01T22:20:18.273Z,9.98
2022-11-01T22:23:21.427Z,6.13
2022-11-01T22:26:26.543Z,14.85
2022-11-01T22:29:29.556Z,11.90
2022-11-01T22:32:32.498Z,9.57
2022-11-01T22:35:35.435Z,10.48
2022-11-01T22:38:41.342Z,9.30
2022-11-01T22:41:45.721Z,7.60
2022-11-01T22:44:51.247Z,13.18
2022-11-01T22:47:54.315Z,11.57
2022-11-01T22:50:57.627Z,8.65
2022-11-01T22:54:01.218Z,7.83
2022-11-01T22:57:16.687Z,10.82
2022-11-01T23:00:29.167Z,8.73
2022-11-01T23:03:37.454Z,12.52
2022-11-01T23:06:43.016Z,8.40
2022-11-01T23:09:46.351Z,10.35
2022-11-01T23:13:09.977Z,8.67
2022-11-01T23:16:25.542Z,7.97
2022-11-01T23:19:28.573Z,7.38
2022-11-01T23:22:35.637Z,10.18
2022-11-01T23:25:39.292Z,8.90
2022-11-01T23:28:47.284Z,8.02
2022-11-01T23:31:50.382Z,5.78
2022-11-01T23:35:03.785Z,10.77
2022-11-01T23:38:18.471Z,7.40
2022-11-01T23:41:24.835Z,11.25
2022-11-01T23:44:32.756Z,9.38
2022-11-01T23:47:41.594Z,11.90
2022-11-01T23:50:46.304Z,10.93
2022-11-01T23:53:54.849Z,9.48
2022-11-01T23:56:57.898Z,6.78
